Time;durP1;ratioP1;P1;durP2;ratioP2;P2;SDS_P1;SDS_P2;PMS_P1;PMS_P2;Temp;Humidity;BMP_temperature;BMP_pressure;BME280_temperature;BME280_humidity;BME280_pressure;Samples;Min_cycle;Max_cycle;Signal;HPM_P1;HPM_P2
2023/09/29 00:00:54;;;;;;;13.37;7.47;;;;;;;19.58;82.10;100722.56;5093049;28;20233;-68
2023/09/29 00:03:22;;;;;;;11.80;6.57;;;;;;;19.51;82.34;100721.72;5095398;28;20278;-70
2023/09/29 00:05:50;;;;;;;14.30;6.87;;;;;;;19.50;82.61;100726.28;5093742;28;20309;-70
2023/09/29 00:08:22;;;;;;;11.17;7.13;;;;;;;19.49;82.85;100721.91;5092926;28;20297;-69
2023/09/29 00:10:50;;;;;;;14.03;6.30;;;;;;;19.52;82.37;100724.22;5093560;28;20224;-70
2023/09/29 00:13:18;;;;;;;11.97;6.80;;;;;;;19.61;81.49;100724.88;5090581;28;21003;-69
2023/09/29 00:15:49;;;;;;;14.53;6.97;;;;;;;19.70;81.10;100725.53;5093163;28;20927;-72
2023/09/29 00:18:16;;;;;;;13.67;7.33;;;;;;;19.70;81.63;100729.03;5094159;28;20348;-69
2023/09/29 00:20:44;;;;;;;12.43;6.77;;;;;;;19.65;82.16;100727.97;5095194;28;20230;-70
2023/09/29 00:23:13;;;;;;;9.77;6.53;;;;;;;19.62;81.73;100729.19;5096655;28;20209;-69
2023/09/29 00:25:42;;;;;;;11.73;6.83;;;;;;;19.58;81.60;100730.66;5097381;28;20216;-71
2023/09/29 00:28:10;;;;;;;11.27;6.43;;;;;;;19.62;80.95;100725.69;5095566;28;20286;-68
2023/09/29 00:30:38;;;;;;;12.20;6.40;;;;;;;19.66;80.91;100724.25;5097865;27;20210;-71
2023/09/29 00:33:06;;;;;;;11.17;6.37;;;;;;;19.74;80.64;100730.28;5098631;28;20267;-70
2023/09/29 00:35:34;;;;;;;11.03;6.70;;;;;;;19.71;80.79;100725.31;5095850;28;20210;-70
2023/09/29 00:38:02;;;;;;;12.07;6.93;;;;;;;19.63;81.55;100728.16;5094223;28;20206;-67
2023/09/29 00:40:30;;;;;;;15.57;6.77;;;;;;;19.59;81.39;100718.84;5093541;28;20203;-69
2023/09/29 00:43:00;;;;;;;11.30;6.40;;;;;;;19.51;81.82;100713.66;5094944;28;20272;-68
2023/09/29 00:45:29;;;;;;;15.20;6.93;;;;;;;19.46;82.40;100708.00;5096575;28;20207;-70
2023/09/29 00:48:03;;;;;;;8.70;6.13;;;;;;;19.43;82.43;100709.25;5096302;28;20202;-69
2023/09/29 00:50:32;;;;;;;9.53;6.00;;;;;;;19.43;82.56;100694.97;5097147;28;20688;-71
2023/09/29 00:53:06;;;;;;;11.87;6.63;;;;;;;19.45;82.62;100707.16;5097168;28;20199;-70
2023/09/29 00:55:36;;;;;;;10.50;6.07;;;;;;;19.48;81.78;100698.75;5096806;28;20262;-69
2023/09/29 00:58:06;;;;;;;9.37;6.43;;;;;;;19.46;81.84;100692.69;5095686;28;20207;-67
2023/09/29 01:00:37;;;;;;;11.10;6.50;;;;;;;19.46;81.72;100691.84;5097383;28;20216;-70
2023/09/29 01:03:08;;;;;;;10.60;6.20;;;;;;;19.43;82.22;100700.34;5098112;28;20230;-69
2023/09/29 01:05:38;;;;;;;12.43;6.87;;;;;;;19.44;82.29;100707.34;5097006;28;20265;-68
2023/09/29 01:08:09;;;;;;;9.97;6.67;;;;;;;19.48;81.78;100700.59;5095538;28;20226;-68
2023/09/29 01:10:37;;;;;;;12.27;6.30;;;;;;;19.43;82.29;100709.25;5093050;28;20582;-66
2023/09/29 01:13:07;;;;;;;12.93;6.17;;;;;;;19.39;82.16;100705.28;5095363;28;20628;-68
2023/09/29 01:15:35;;;;;;;9.60;6.43;;;;;;;19.46;81.33;100710.69;5097653;28;20214;-68
2023/09/29 01:18:03;;;;;;;8.70;5.67;;;;;;;19.54;80.73;100719.44;5096625;28;20830;-67
2023/09/29 01:20:31;;;;;;;10.33;6.80;;;;;;;19.62;79.99;100721.13;5096882;28;20206;-68
2023/09/29 01:23:01;;;;;;;9.13;5.67;;;;;;;19.67;79.82;100724.06;5094534;28;20238;-69
2023/09/29 01:25:30;;;;;;;10.43;5.47;;;;;;;19.73;78.78;100714.34;5095558;28;20206;-69
2023/09/29 01:27:58;;;;;;;12.63;6.40;;;;;;;19.77;78.74;100718.31;5094589;28;20336;-67
2023/09/29 01:30:27;;;;;;;10.70;5.63;;;;;;;19.80;78.55;100724.09;5093654;28;20460;-68
2023/09/29 01:32:57;;;;;;;10.80;6.50;;;;;;;19.81;78.02;100722.22;5095619;28;20656;-69
2023/09/29 01:35:25;;;;;;;9.23;6.20;;;;;;;19.83;77.79;100720.19;5098010;28;20206;-70
2023/09/29 01:37:54;;;;;;;11.83;6.07;;;;;;;19.82;77.91;100730.13;5095114;28;20264;-69
2023/09/29 01:40:22;;;;;;;9.23;6.07;;;;;;;19.83;77.56;100722.88;5094993;28;20214;-69
2023/09/29 01:42:53;;;;;;;10.00;6.33;;;;;;;19.82;77.61;100716.66;5099215;28;20241;-68
2023/09/29 01:45:21;;;;;;;11.93;6.53;;;;;;;19.79;77.95;100718.94;5093779;28;20219;-71
2023/09/29 01:47:49;;;;;;;10.83;6.20;;;;;;;19.81;77.93;100720.38;5096103;28;20214;-69
2023/09/29 01:50:20;;;;;;;11.63;6.70;;;;;;;19.80;77.67;100724.09;5096648;28;20221;-68
2023/09/29 01:52:49;;;;;;;10.90;6.43;;;;;;;19.78;78.07;100723.50;5097878;28;20239;-72
2023/09/29 01:55:21;;;;;;;12.70;6.83;;;;;;;19.76;77.96;100713.94;5095557;28;20210;-70
2023/09/29 01:57:50;;;;;;;11.60;6.83;;;;;;;19.74;77.60;100707.94;5094594;28;20828;-67
2023/09/29 02:00:23;;;;;;;13.07;6.53;;;;;;;19.67;78.51;100699.84;5098409;28;20259;-69
2023/09/29 02:02:53;;;;;;;13.90;6.83;;;;;;;19.58;79.74;100708.28;5094342;28;20215;-70
2023/09/29 02:05:22;;;;;;;11.57;6.60;;;;;;;19.49;80.34;100702.25;5095393;28;20229;-69
2023/09/29 02:07:51;;;;;;;13.30;6.23;;;;;;;19.46;80.16;100705.31;5094654;28;20282;-69
2023/09/29 02:10:20;;;;;;;9.53;6.33;;;;;;;19.44;80.14;100696.59;5094390;28;20238;-67
2023/09/29 02:12:54;;;;;;;10.17;6.27;;;;;;;19.38;80.80;100697.41;5093647;28;20211;-70
2023/09/29 02:15:24;;;;;;;13.07;6.43;;;;;;;19.29;81.33;100695.91;5094861;28;20195;-66
2023/09/29 02:17:52;;;;;;;13.97;7.10;;;;;;;19.22;81.92;100689.69;5095047;28;20247;-69
2023/09/29 02:20:28;;;;;;;11.37;6.53;;;;;;;19.17;82.14;100693.78;5093342;28;20259;-69
2023/09/29 02:22:59;;;;;;;11.47;7.00;;;;;;;19.13;82.32;100695.22;5094555;28;20834;-66
2023/09/29 02:25:28;;;;;;;12.80;6.40;;;;;;;19.10;82.44;100689.41;5094747;28;20203;-68
2023/09/29 02:27:57;;;;;;;13.80;7.17;;;;;;;19.06;82.88;100693.53;5095811;28;20191;-69
2023/09/29 02:30:26;;;;;;;11.60;6.50;;;;;;;19.01;83.48;100691.41;5094200;28;20245;-69
2023/09/29 02:32:56;;;;;;;10.37;7.13;;;;;;;19.00;83.57;100699.69;5093633;28;20372;-69
2023/09/29 02:35:24;;;;;;;12.27;6.73;;;;;;;18.99;83.82;100698.88;5093478;28;20732;-68
2023/09/29 02:37:53;;;;;;;10.50;6.93;;;;;;;19.01;83.92;100704.03;5093189;28;20199;-69
2023/09/29 02:40:22;;;;;;;8.73;6.17;;;;;;;19.09;82.79;100712.75;5096299;28;20304;-69
2023/09/29 02:42:51;;;;;;;10.80;7.20;;;;;;;19.21;81.79;100710.38;5092086;28;20221;-70
2023/09/29 02:45:18;;;;;;;10.63;6.50;;;;;;;19.30;80.71;100716.41;5093306;28;20206;-69
2023/09/29 02:47:47;;;;;;;12.40;7.37;;;;;;;19.39;80.43;100715.22;5093161;28;20210;-68
2023/09/29 02:50:16;;;;;;;11.43;6.73;;;;;;;19.44;80.42;100720.81;5091626;28;20198;-70
2023/09/29 02:52:44;;;;;;;11.00;6.80;;;;;;;19.50;79.77;100728.13;5095420;28;20230;-71
2023/09/29 02:55:14;;;;;;;10.33;6.43;;;;;;;19.53;80.14;100733.09;5094260;28;20632;-68
2023/09/29 02:57:43;;;;;;;15.20;8.10;;;;;;;19.57;80.40;100733.53;5093147;28;20195;-69
2023/09/29 03:00:15;;;;;;;8.93;6.40;;;;;;;19.53;80.85;100731.22;5094590;28;20222;-69
2023/09/29 03:02:43;;;;;;;15.80;7.30;;;;;;;19.43;81.63;100732.63;5093098;28;20232;-69
2023/09/29 03:05:14;;;;;;;9.00;6.57;;;;;;;19.34;81.68;100733.81;5095431;28;20202;-68
2023/09/29 03:07:43;;;;;;;9.13;6.50;;;;;;;19.36;80.95;100721.81;5093675;28;20660;-69
2023/09/29 03:10:13;;;;;;;13.33;6.93;;;;;;;19.43;80.78;100722.69;5093237;28;20233;-67
2023/09/29 03:12:41;;;;;;;10.30;7.07;;;;;;;19.43;81.26;100716.47;5093444;28;20206;-69
2023/09/29 03:15:11;;;;;;;10.53;7.03;;;;;;;19.36;82.38;100712.91;5089917;28;20226;-69
2023/09/29 03:17:39;;;;;;;10.30;6.53;;;;;;;19.36;82.21;100718.28;5094032;28;20668;-72
2023/09/29 03:20:10;;;;;;;12.87;7.03;;;;;;;19.29;81.89;100712.88;5094723;28;20210;-70
2023/09/29 03:22:41;;;;;;;12.13;7.37;;;;;;;19.22;82.52;100713.88;5093879;28;20226;-69
2023/09/29 03:25:10;;;;;;;11.80;7.47;;;;;;;19.17;83.02;100714.50;5094488;28;20210;-68
2023/09/29 03:27:39;;;;;;;14.60;7.27;;;;;;;19.15;82.69;100706.63;5094271;28;20289;-68
2023/09/29 03:30:09;;;;;;;12.63;7.40;;;;;;;19.14;82.75;100704.97;5091990;28;20223;-70
2023/09/29 03:32:37;;;;;;;14.27;7.13;;;;;;;19.11;82.63;100702.66;5091919;28;21181;-68
2023/09/29 03:35:08;;;;;;;14.87;7.03;;;;;;;19.07;83.06;100704.09;5094971;28;20209;-67
2023/09/29 03:37:38;;;;;;;13.30;6.73;;;;;;;19.04;83.22;100696.41;5094197;28;20306;-70
2023/09/29 03:40:10;;;;;;;14.03;7.20;;;;;;;19.07;82.82;100698.72;5093741;28;20207;-68
2023/09/29 03:42:41;;;;;;;13.77;8.23;;;;;;;19.09;82.71;100703.88;5093582;28;20234;-69
2023/09/29 03:45:11;;;;;;;16.37;8.57;;;;;;;19.03;83.00;100705.50;5092799;28;20297;-72
2023/09/29 03:47:39;;;;;;;14.40;9.30;;;;;;;19.02;83.25;100709.22;5092326;28;20205;-69
2023/09/29 03:50:11;;;;;;;16.97;9.37;;;;;;;19.09;82.76;100709.25;5092149;28;20228;-71
2023/09/29 03:52:40;;;;;;;13.97;9.03;;;;;;;19.12;82.06;100709.69;5095123;28;20198;-67
2023/09/29 03:55:10;;;;;;;16.93;9.63;;;;;;;19.08;82.73;100707.63;5091541;28;20330;-69
2023/09/29 03:57:38;;;;;;;12.10;9.07;;;;;;;19.12;82.08;100708.84;5093282;28;20209;-69
2023/09/29 04:00:09;;;;;;;16.10;8.73;;;;;;;19.16;81.90;100716.34;5092877;28;20210;-66
2023/09/29 04:02:37;;;;;;;14.93;8.10;;;;;;;19.12;81.82;100715.06;5092932;28;20574;-67
2023/09/29 04:05:05;;;;;;;12.20;8.00;;;;;;;19.02;82.97;100725.34;5091585;28;20198;-70
2023/09/29 04:07:34;;;;;;;9.77;7.50;;;;;;;19.02;82.94;100730.72;5091024;28;20704;-70
2023/09/29 04:10:02;;;;;;;12.27;8.47;;;;;;;19.04;82.56;100723.28;5092014;28;20207;-69
2023/09/29 04:12:31;;;;;;;12.43;7.73;;;;;;;19.05;82.04;100722.25;5091985;28;20206;-71
2023/09/29 04:14:59;;;;;;;12.03;7.73;;;;;;;19.05;82.49;100719.56;5095321;28;20198;-69
2023/09/29 04:17:26;;;;;;;13.87;7.63;;;;;;;19.01;83.10;100720.97;5092768;28;20695;-68
2023/09/29 04:19:55;;;;;;;12.87;8.13;;;;;;;18.99;83.21;100722.22;5091640;28;20225;-68
2023/09/29 04:22:24;;;;;;;13.20;8.00;;;;;;;18.98;82.84;100721.41;5091047;28;20279;-68
2023/09/29 04:24:52;;;;;;;12.63;7.63;;;;;;;18.95;83.15;100727.16;5092427;28;20540;-69
2023/09/29 04:27:19;;;;;;;14.33;7.70;;;;;;;18.89;83.63;100719.88;5091419;28;20277;-69
2023/09/29 04:29:48;;;;;;;12.57;7.50;;;;;;;18.87;83.72;100721.94;5090146;28;20753;-68
2023/09/29 04:32:17;;;;;;;10.00;6.93;;;;;;;18.87;83.76;100724.63;5091777;28;20237;-69
2023/09/29 04:34:45;;;;;;;14.90;7.47;;;;;;;18.96;82.93;100725.31;5093341;28;20692;-72
2023/09/29 04:37:13;;;;;;;14.23;7.27;;;;;;;19.07;81.50;100722.91;5095306;28;20313;-74
2023/09/29 04:39:41;;;;;;;12.13;7.17;;;;;;;19.16;80.95;100727.09;5091749;28;20221;-69
2023/09/29 04:42:08;;;;;;;10.77;7.10;;;;;;;19.21;80.71;100728.34;5091840;28;20230;-71
2023/09/29 04:44:37;;;;;;;11.63;7.73;;;;;;;19.22;80.44;100730.00;5091049;28;20341;-70
2023/09/29 04:47:07;;;;;;;11.83;7.47;;;;;;;19.22;81.04;100730.00;5090463;28;20203;-71
2023/09/29 04:49:35;;;;;;;11.10;7.03;;;;;;;19.24;80.63;100736.03;5091614;28;20562;-71
2023/09/29 04:52:03;;;;;;;13.67;7.67;;;;;;;19.22;80.26;100728.16;5092603;28;20863;-72
2023/09/29 04:54:31;;;;;;;14.60;7.87;;;;;;;19.15;81.36;100722.75;5092741;28;20202;-69
2023/09/29 04:56:59;;;;;;;10.23;7.40;;;;;;;19.09;82.17;100720.00;5091718;28;20216;-66
2023/09/29 04:59:27;;;;;;;17.43;7.67;;;;;;;19.04;82.36;100717.91;5092873;28;20238;-69
2023/09/29 05:01:54;;;;;;;17.47;7.70;;;;;;;18.95;82.79;100720.94;5095729;28;20195;-73
2023/09/29 05:04:23;;;;;;;11.53;7.67;;;;;;;18.91;83.28;100720.50;5093112;28;20229;-72
2023/09/29 05:06:52;;;;;;;13.27;7.57;;;;;;;18.85;83.44;100707.84;5074689;28;20264;-71
2023/09/29 05:09:20;;;;;;;10.47;7.80;;;;;;;18.81;84.06;100717.34;5096251;28;20228;-72
2023/09/29 05:11:49;;;;;;;14.93;7.33;;;;;;;18.78;84.56;100723.09;5095095;28;20250;-69
2023/09/29 05:14:17;;;;;;;11.20;7.77;;;;;;;18.80;84.21;100715.69;5097003;28;20236;-67
2023/09/29 05:16:45;;;;;;;16.27;7.07;;;;;;;18.75;84.53;100721.63;5094444;28;20195;-68
2023/09/29 05:19:12;;;;;;;11.50;7.43;;;;;;;18.74;84.30;100722.66;5094743;28;20203;-67
2023/09/29 05:21:41;;;;;;;11.97;7.77;;;;;;;18.67;85.37;100720.94;5098195;28;20198;-66
2023/09/29 05:24:09;;;;;;;12.23;8.43;;;;;;;18.65;85.23;100723.00;5096024;28;20360;-66
2023/09/29 05:26:37;;;;;;;13.97;8.53;;;;;;;18.59;85.79;100729.97;5094436;28;20271;-66
2023/09/29 05:29:05;;;;;;;11.50;7.63;;;;;;;18.63;85.53;100728.56;5094878;28;20300;-66
2023/09/29 05:31:33;;;;;;;12.83;7.40;;;;;;;18.72;84.55;100737.31;5096741;28;20260;-67
2023/09/29 05:34:00;;;;;;;22.63;7.60;;;;;;;18.83;83.66;100735.94;5095372;28;20622;-67
2023/09/29 05:36:29;;;;;;;17.33;8.37;;;;;;;18.88;83.41;100734.34;5093306;28;20272;-67
2023/09/29 05:38:58;;;;;;;13.27;8.13;;;;;;;18.78;83.90;100736.53;5097046;28;20289;-67
2023/09/29 05:41:26;;;;;;;13.30;7.30;;;;;;;18.70;84.72;100732.16;5097286;28;20230;-67
2023/09/29 05:43:55;;;;;;;12.03;7.73;;;;;;;18.67;84.93;100732.53;5094855;28;20224;-68
2023/09/29 05:46:22;;;;;;;17.73;7.53;;;;;;;18.62;85.23;100734.13;5095132;28;20206;-66
2023/09/29 05:48:50;;;;;;;15.40;7.93;;;;;;;18.57;85.42;100752.66;5094623;28;20574;-67
2023/09/29 05:51:18;;;;;;;16.47;7.37;;;;;;;18.53;86.20;100737.94;5095127;28;20294;-68
2023/09/29 05:53:45;;;;;;;12.40;7.30;;;;;;;18.58;85.71;100735.53;5094613;28;20201;-69
2023/09/29 05:56:15;;;;;;;16.80;8.03;;;;;;;18.57;85.86;100737.38;5092650;28;20195;-67
2023/09/29 05:58:43;;;;;;;14.47;8.57;;;;;;;18.51;86.49;100730.09;5093575;28;20218;-68
2023/09/29 06:01:11;;;;;;;13.23;8.27;;;;;;;18.56;85.90;100733.00;5092190;28;20199;-67
2023/09/29 06:03:40;;;;;;;12.80;7.80;;;;;;;18.55;86.32;100752.03;5093202;28;20324;-66
2023/09/29 06:08:43;;;;;;;13.67;7.60;;;;;;;18.67;85.46;100734.38;5045306;28;20208;-71
2023/09/29 06:11:23;;;;;;;16.03;8.10;;;;;;;18.66;85.45;100735.41;5054470;28;20195;-73
2023/09/29 06:13:51;;;;;;;14.37;8.07;;;;;;;18.67;85.08;100740.56;5053542;28;20292;-73
2023/09/29 06:16:20;;;;;;;12.53;7.40;;;;;;;18.62;85.50;100739.50;5053768;28;20204;-72
2023/09/29 06:18:48;;;;;;;11.20;7.47;;;;;;;18.66;85.08;100740.75;5053689;28;20623;-74
2023/09/29 06:29:08;;;;;;;18.73;7.80;;;;;;;18.73;83.97;100729.03;4990056;28;20644;-75
2023/09/29 06:48:56;;;;;;;21.23;8.30;;;;;;;19.05;83.19;100776.00;4967197;28;20206;-74
2023/09/29 06:51:48;;;;;;;;;;;;;;;;;;;;;
2023/09/29 06:58:28;;;;;;;15.53;7.50;;;;;;;19.05;83.34;100776.00;4953720;28;20218;-74
2023/09/29 07:04:46;;;;;;;13.50;7.87;;;;;;;19.14;83.19;100772.16;5022085;28;20233;-74
2023/09/29 07:07:18;;;;;;;15.20;8.00;;;;;;;19.14;82.96;100760.56;5029218;28;20292;-74
2023/09/29 07:09:47;;;;;;;12.40;8.37;;;;;;;19.14;82.66;100761.41;5029728;28;20212;-74
2023/09/29 07:12:24;;;;;;;14.37;7.97;;;;;;;19.12;83.49;100755.38;5032135;28;20205;-75
2023/09/29 07:15:31;;;;;;;14.07;7.90;;;;;;;19.16;83.23;100747.78;5028791;28;20293;-75
2023/09/29 07:18:10;;;;;;;17.07;8.77;;;;;;;19.24;82.99;100754.84;5024261;28;20626;-77
2023/09/29 07:21:34;;;;;;;16.90;8.17;;;;;;;19.24;83.19;100760.22;5025288;28;20197;-74
2023/09/29 07:24:08;;;;;;;13.77;8.30;;;;;;;19.25;83.40;100751.13;5013977;28;20238;-74
2023/09/29 07:27:01;;;;;;;;;;;;;;;;;;;;;
2023/09/29 07:29:34;;;;;;;12.37;7.43;;;;;;;19.38;82.27;100745.81;5021159;28;20207;-75
2023/09/29 07:32:11;;;;;;;14.23;8.27;;;;;;;19.41;82.22;100740.06;5028311;28;20363;-74
2023/09/29 07:34:41;;;;;;;11.33;7.97;;;;;;;19.46;81.38;100733.03;5028558;28;20672;-73
2023/09/29 07:37:31;;;;;;;23.23;7.77;;;;;;;19.51;81.40;100730.63;5021969;28;20264;-73
2023/09/29 07:40:04;;;;;;;16.63;8.07;;;;;;;19.59;80.93;100732.31;5016628;28;20283;-74
2023/09/29 07:49:03;;;;;;;14.13;8.00;;;;;;;20.15;77.19;100743.66;5025077;28;20291;-74
2023/09/29 07:51:58;;;;;;;16.20;8.07;;;;;;;20.04;77.40;100741.56;5021882;28;20298;-73
2023/09/29 07:55:05;;;;;;;11.93;7.30;;;;;;;20.04;77.00;100751.50;5023329;28;20372;-73
2023/09/29 07:57:59;;;;;;;11.93;6.87;;;;;;;19.99;78.37;100743.19;5026165;28;20236;-73
2023/09/29 08:00:28;;;;;;;15.70;7.40;;;;;;;20.08;78.50;100740.13;5016174;28;20209;-73
2023/09/29 08:03:02;;;;;;;13.87;6.47;;;;;;;20.36;77.37;100739.16;5028337;28;20290;-73
2023/09/29 08:06:27;;;;;;;;;;;;;;;;;;;;;
2023/09/29 08:09:03;;;;;;;19.87;7.50;;;;;;;20.68;74.02;100749.13;5014193;28;20216;-73
2023/09/29 08:11:41;;;;;;;15.37;7.03;;;;;;;20.60;74.55;100747.47;5019645;28;20197;-74
2023/09/29 08:14:25;;;;;;;12.47;7.50;;;;;;;20.97;72.96;100747.88;5020317;28;20194;-74
2023/09/29 08:17:18;;;;;;;13.43;7.97;;;;;;;21.25;71.35;100744.97;4926949;29;20203;-73
2023/09/29 08:19:55;;;;;;;13.63;7.37;;;;;;;21.51;70.69;100746.75;4924050;29;20211;-73
2023/09/29 08:22:25;;;;;;;11.30;7.10;;;;;;;21.62;70.61;100756.88;4929949;29;20335;-74
2023/09/29 08:25:16;;;;;;;9.70;6.47;;;;;;;21.70;69.61;100762.88;4932985;29;20291;-73
2023/09/29 08:27:45;;;;;;;13.63;6.67;;;;;;;21.87;68.78;100757.81;4932490;29;20204;-73
2023/09/29 08:30:14;;;;;;;11.33;6.53;;;;;;;22.03;68.06;100757.34;4926540;29;20705;-75
2023/09/29 08:32:43;;;;;;;13.17;6.10;;;;;;;22.16;67.36;100758.34;4918947;29;20325;-73
2023/09/29 08:35:15;;;;;;;14.00;6.07;;;;;;;22.13;68.01;100755.00;4923519;29;20699;-74
2023/09/29 08:37:44;;;;;;;12.03;6.63;;;;;;;22.54;66.26;100750.97;4928677;28;20253;-74
2023/09/29 08:40:28;;;;;;;11.53;6.03;;;;;;;22.71;65.62;100746.69;4932950;29;20228;-72
2023/09/29 08:43:04;;;;;;;9.63;5.93;;;;;;;22.80;65.37;100748.09;4925296;28;20285;-73
2023/09/29 08:45:48;;;;;;;9.63;5.90;;;;;;;23.46;63.38;100744.75;4928526;29;20217;-73
2023/09/29 08:48:43;;;;;;;9.45;5.05;;;;;;;24.78;59.17;100745.63;4937087;29;20305;-74
2023/09/29 08:51:23;;;;;;;12.15;5.25;;;;;;;25.97;55.23;100743.34;4927881;29;20238;-73
2023/09/29 08:53:56;;;;;;;13.57;4.75;;;;;;;28.53;48.22;100734.72;4952565;28;20204;-74
2023/09/29 08:56:27;;;;;;;8.07;5.00;;;;;;;29.67;44.04;100734.94;5029633;28;20193;-74
2023/09/29 08:59:03;;;;;;;12.48;4.75;;;;;;;28.07;46.88;100739.72;5029639;28;20202;-74
2023/09/29 09:01:35;;;;;;;8.35;5.32;;;;;;;26.67;49.75;100746.53;5033830;28;20204;-73
2023/09/29 09:04:07;;;;;;;15.48;5.53;;;;;;;25.53;53.17;100740.25;5027214;28;20202;-74
2023/09/29 09:07:31;;;;;;;11.20;5.03;;;;;;;24.78;55.76;100737.47;5033445;28;20234;-73
2023/09/29 09:10:07;;;;;;;12.68;5.35;;;;;;;24.53;57.77;100740.41;5012074;28;20262;-73
2023/09/29 09:25:12;;;;;;;12.07;5.03;;;;;;;27.86;48.61;100724.25;4931086;29;20280;-73
2023/09/29 09:28:22;;;;;;;9.27;4.63;;;;;;;27.24;49.04;100725.38;4797525;29;20211;-74
2023/09/29 09:31:15;;;;;;;8.45;4.93;;;;;;;26.89;50.63;100728.38;4863954;29;20600;-73
2023/09/29 09:34:03;;;;;;;9.43;4.25;;;;;;;27.77;47.98;100717.63;4855187;29;20703;-73
2023/09/29 09:36:59;;;;;;;12.65;4.47;;;;;;;27.71;47.62;100719.44;4855701;29;20293;-73
2023/09/29 10:11:16;;;;;;;10.82;4.68;;;;;;;25.72;53.70;100725.50;4958664;28;20224;-74
2023/09/29 10:13:50;;;;;;;8.65;4.03;;;;;;;25.76;54.19;100721.25;5072103;28;20230;-74
2023/09/29 10:16:28;;;;;;;9.90;4.50;;;;;;;25.99;53.74;100722.19;5079242;28;20227;-75
2023/09/29 10:19:22;;;;;;;11.38;4.18;;;;;;;26.60;51.88;100718.66;5085287;28;20194;-77
2023/09/29 10:22:23;;;;;;;6.80;4.03;;;;;;;26.48;52.73;100718.75;5070712;28;20210;-76
2023/09/29 10:28:12;;;;;;;8.65;4.07;;;;;;;26.33;52.70;100723.09;5092956;28;20219;-74
2023/09/29 10:31:31;;;;;;;;;;;;;;;;;;;;;
2023/09/29 10:38:12;;;;;;;8.68;4.25;;;;;;;26.26;53.45;100717.84;5075668;28;20178;-74
2023/09/29 10:44:57;;;;;;;10.77;3.70;;;;;;;26.97;50.95;100708.13;5054628;28;20207;-75
2023/09/29 10:47:38;;;;;;;13.05;3.97;;;;;;;26.85;52.30;100699.19;5069834;28;20219;-74
2023/09/29 11:28:16;;;;;;;;;;;;;;;;;;;;;
2023/09/29 12:08:31;;;;;;;11.10;2.92;;;;;;;26.18;52.14;100729.91;4875351;29;20240;-74
2023/09/29 12:15:22;;;;;;;6.63;2.55;;;;;;;25.89;53.13;100749.16;4835500;29;20223;-75
2023/09/29 12:17:57;;;;;;;8.90;2.97;;;;;;;25.81;53.52;100737.63;4833654;29;20682;-75
2023/09/29 12:23:54;;;;;;;8.98;2.70;;;;;;;25.72;54.83;100760.78;4973734;28;20289;-74
2023/09/29 12:29:44;;;;;;;12.00;3.50;;;;;;;25.62;55.32;100768.72;4935543;28;20238;-74
2023/09/29 12:32:52;;;;;;;5.05;2.38;;;;;;;25.53;55.77;100764.69;4995594;28;20195;-74
2023/09/29 12:35:49;;;;;;;8.52;3.15;;;;;;;25.29;57.08;100771.22;4974148;28;20217;-74
2023/09/29 12:47:21;;;;;;;6.97;2.83;;;;;;;24.58;59.42;100794.75;5034383;28;20224;-74
2023/09/29 12:50:33;;;;;;;8.05;2.90;;;;;;;24.52;59.27;100800.28;5026044;28;20204;-74
2023/09/29 12:53:10;;;;;;;12.90;3.80;;;;;;;24.39;59.44;100804.00;5032842;28;20208;-74
2023/09/29 12:55:52;;;;;;;12.88;3.28;;;;;;;24.33;59.54;100803.03;5031305;28;20192;-74
2023/09/29 13:46:00;;;;;;;17.30;7.53;;;;;;;24.22;56.26;100859.88;4851012;29;20730;-74
2023/09/29 13:48:46;;;;;;;16.35;8.35;;;;;;;24.22;56.77;100868.84;4946765;28;20242;-74
2023/09/29 13:51:20;;;;;;;18.15;8.20;;;;;;;24.17;57.14;100871.41;4939959;28;20207;-74
2023/09/29 13:55:09;;;;;;;24.10;9.63;;;;;;;24.01;56.56;100867.41;4955565;28;20323;-74
2023/09/29 14:11:56;;;;;;;;;;;;;;;;;;;;;
2023/09/29 14:15:20;;;;;;;38.67;17.02;;;;;;;23.46;55.68;100885.47;4988772;28;20214;-74
2023/09/29 14:18:12;;;;;;;35.75;17.48;;;;;;;23.48;55.45;100894.19;5012214;28;20208;-75
2023/09/29 14:21:25;;;;;;;40.15;17.33;;;;;;;23.51;55.32;100893.75;4999511;28;20241;-74
2023/09/29 14:27:54;;;;;;;36.75;18.48;;;;;;;23.42;55.03;100886.94;5004590;28;20243;-75
2023/09/29 14:31:02;;;;;;;42.47;20.17;;;;;;;23.44;55.20;100894.84;5003319;28;20247;-75
2023/09/29 14:34:21;;;;;;;43.53;19.80;;;;;;;23.42;55.16;100897.78;5000951;28;20574;-75
2023/09/29 14:37:00;;;;;;;40.85;19.77;;;;;;;23.40;54.93;100897.16;5007970;28;20244;-74
2023/09/29 14:39:35;;;;;;;44.05;20.08;;;;;;;23.36;54.86;100900.53;5001422;28;20210;-76
2023/09/29 14:42:04;;;;;;;42.17;20.10;;;;;;;23.37;54.72;100900.34;5007812;28;20679;-74
2023/09/29 14:44:38;;;;;;;42.35;20.27;;;;;;;23.37;54.32;100902.19;5003482;28;20285;-74
2023/09/29 14:50:16;;;;;;;41.80;20.02;;;;;;;23.28;53.89;100898.94;5008352;28;20198;-74
2023/09/29 14:53:01;;;;;;;44.50;19.30;;;;;;;23.23;53.91;100896.06;5003296;28;20209;-75
2023/09/29 14:55:49;;;;;;;41.88;20.42;;;;;;;23.15;53.65;100894.47;4993822;28;20206;-75
2023/09/29 14:58:41;;;;;;;40.05;18.48;;;;;;;23.09;54.19;100889.94;5005831;28;20647;-74
2023/09/29 15:01:16;;;;;;;42.97;20.30;;;;;;;23.08;54.42;100892.84;4999821;28;20710;-75
2023/09/29 15:03:53;;;;;;;43.38;18.95;;;;;;;23.08;53.95;100901.81;5008558;28;20263;-76
2023/09/29 15:06:37;;;;;;;42.42;20.35;;;;;;;23.04;54.26;100892.50;5009881;28;20223;-74
2023/09/29 15:09:06;;;;;;;39.13;17.90;;;;;;;23.03;54.08;100900.81;5010419;28;20652;-74
2023/09/29 15:11:38;;;;;;;41.58;19.05;;;;;;;23.04;54.00;100891.66;5011442;28;20209;-74
2023/09/29 15:14:37;;;;;;;39.03;18.10;;;;;;;23.02;54.26;100882.94;4970221;28;20352;-74
2023/09/29 15:17:11;;;;;;;43.60;18.52;;;;;;;23.00;54.64;100893.97;4966540;28;20290;-74
2023/09/29 15:20:04;;;;;;;41.72;17.70;;;;;;;22.96;54.82;100891.91;4968954;28;20971;-75
2023/09/29 15:22:41;;;;;;;42.05;18.90;;;;;;;22.94;55.00;100896.72;4963306;28;20290;-74
2023/09/29 15:25:22;;;;;;;43.10;19.08;;;;;;;22.91;54.99;100897.97;4968529;28;20667;-75
2023/09/29 15:27:54;;;;;;;42.80;17.92;;;;;;;22.89;54.78;100900.06;4965001;28;20242;-74
2023/09/29 15:30:25;;;;;;;44.50;19.85;;;;;;;22.86;54.93;100900.53;4963603;28;20206;-74
2023/09/29 15:32:57;;;;;;;35.80;16.73;;;;;;;22.83;54.65;100895.53;4968313;28;20310;-74
2023/09/29 15:35:31;;;;;;;42.47;17.02;;;;;;;22.83;54.59;100909.88;4967587;28;20199;-76
2023/09/29 15:38:19;;;;;;;41.13;17.23;;;;;;;22.80;55.04;100910.31;4965058;28;20250;-75
2023/09/29 15:40:50;;;;;;;39.20;18.20;;;;;;;22.78;54.93;100909.69;4968250;28;20198;-74
2023/09/29 15:46:30;;;;;;;32.13;14.43;;;;;;;22.72;54.75;100913.25;5013339;28;20336;-75
2023/09/29 15:49:01;;;;;;;31.17;13.68;;;;;;;22.74;54.51;100918.44;5003229;28;20551;-76
2023/09/29 15:51:53;;;;;;;32.30;13.45;;;;;;;22.72;54.22;100924.06;5002075;28;20213;-74
2023/09/29 15:54:24;;;;;;;32.45;13.10;;;;;;;22.73;54.76;100923.00;5010721;28;20264;-74
2023/09/29 15:57:09;;;;;;;27.98;12.75;;;;;;;22.74;54.43;100921.16;4999923;28;20207;-75
2023/09/29 15:59:46;;;;;;;30.70;12.60;;;;;;;22.72;54.62;100926.75;5012011;28;20652;-74
2023/09/29 16:02:16;;;;;;;28.27;12.75;;;;;;;22.72;54.79;100926.75;5006948;28;20194;-74
2023/09/29 16:04:59;;;;;;;29.35;13.70;;;;;;;22.72;54.95;100931.34;4994346;28;20202;-75
2023/09/29 16:07:44;;;;;;;;;;;;;;;;;;;;;
2023/09/29 16:10:21;;;;;;;29.90;13.75;;;;;;;22.69;55.55;100943.41;5008200;28;20201;-75
2023/09/29 16:12:50;;;;;;;28.45;13.27;;;;;;;22.69;55.40;100948.81;5007379;28;20219;-74
2023/09/29 16:15:18;;;;;;;28.08;13.35;;;;;;;22.66;55.46;100941.16;5004088;28;20209;-78
2023/09/29 16:17:47;;;;;;;31.88;14.98;;;;;;;22.67;55.57;100944.69;5002125;28;20239;-74
2023/09/29 16:20:19;;;;;;;28.35;13.77;;;;;;;22.68;55.62;100943.66;4996719;28;20277;-75
2023/09/29 16:22:50;;;;;;;30.90;13.02;;;;;;;22.64;55.96;100940.53;4997058;28;20206;-75
2023/09/29 16:25:18;;;;;;;29.85;12.43;;;;;;;22.62;56.42;100953.44;5008112;28;20212;-74
2023/09/29 16:27:50;;;;;;;26.70;11.57;;;;;;;22.60;56.23;100947.44;5004905;28;20243;-74